createdAt,value
2023-03-08T00:00:28.063Z,44.40
2023-03-08T00:02:56.722Z,48.03
2023-03-08T00:05:23.482Z,48.08
2023-03-08T00:07:52.784Z,34.90
2023-03-08T00:10:19.637Z,39.03
2023-03-08T00:12:46.592Z,36.50
2023-03-08T00:15:13.382Z,42.22
2023-03-08T00:17:40.802Z,44.17
2023-03-08T00:20:10.749Z,36.42
2023-03-08T00:22:38.181Z,39.78
2023-03-08T00:25:05.900Z,43.13
2023-03-08T00:27:33.002Z,46.97
2023-03-08T00:30:00.175Z,44.15
2023-03-08T00:32:27.556Z,42.45
2023-03-08T00:34:54.538Z,43.00
2023-03-08T00:37:21.684Z,44.65
2023-03-08T00:39:52.956Z,42.17
2023-03-08T00:42:24.483Z,43.35
2023-03-08T00:44:51.504Z,43.92
2023-03-08T00:47:18.212Z,40.58
2023-03-08T00:49:45.244Z,39.15
2023-03-08T00:52:12.002Z,41.13
2023-03-08T00:54:39.006Z,42.03
2023-03-08T00:57:07.009Z,43.58
2023-03-08T00:59:33.764Z,43.67
2023-03-08T01:02:01.488Z,45.08
2023-03-08T01:04:28.401Z,38.13
2023-03-08T01:06:55.104Z,44.28
2023-03-08T01:09:21.852Z,41.08
2023-03-08T01:11:48.576Z,45.05
2023-03-08T01:14:15.341Z,41.03
2023-03-08T01:16:42.758Z,40.92
2023-03-08T01:19:10.589Z,42.60
2023-03-08T01:21:37.388Z,41.03
2023-03-08T01:24:04.324Z,41.97
2023-03-08T01:26:31.029Z,42.15
2023-03-08T01:28:58.396Z,41.50
2023-03-08T01:31:28.157Z,43.30
2023-03-08T01:33:56.329Z,42.90
2023-03-08T01:36:25.754Z,42.65
2023-03-08T01:38:53.699Z,43.65
2023-03-08T01:41:27.322Z,40.38
2023-03-08T01:43:55.081Z,37.63
2023-03-08T01:46:27.189Z,43.10
2023-03-08T01:49:18.216Z,40.60
2023-03-08T01:51:47.965Z,40.95
2023-03-08T01:54:23.452Z,39.58
2023-03-08T01:56:53.310Z,41.13
2023-03-08T01:59:22.941Z,40.25
2023-03-08T02:01:50.373Z,37.08
2023-03-08T02:04:17.896Z,33.58
2023-03-08T02:06:46.271Z,36.38
2023-03-08T02:09:18.087Z,36.55
2023-03-08T02:11:45.616Z,36.15
2023-03-08T02:14:12.412Z,34.63
2023-03-08T02:16:43.482Z,35.45
2023-03-08T02:19:23.482Z,33.63
2023-03-08T02:21:50.522Z,35.78
2023-03-08T02:24:25.851Z,31.33
2023-03-08T02:26:59.841Z,29.80
2023-03-08T02:29:27.445Z,32.22
2023-03-08T02:31:54.769Z,27.77
2023-03-08T02:34:21.740Z,28.52
2023-03-08T02:36:48.565Z,30.85
2023-03-08T02:39:15.601Z,26.98
2023-03-08T02:41:42.355Z,26.25
2023-03-08T02:44:09.085Z,29.17
2023-03-08T02:46:36.125Z,22.65
2023-03-08T02:49:02.902Z,24.95
2023-03-08T02:51:29.669Z,22.70
2023-03-08T02:53:58.359Z,21.95
2023-03-08T02:56:25.774Z,26.58
2023-03-08T02:58:52.764Z,21.60
2023-03-08T03:01:22.005Z,19.45
2023-03-08T03:03:48.868Z,18.83
2023-03-08T03:06:18.020Z,20.80
2023-03-08T03:08:48.227Z,15.68
2023-03-08T03:11:19.288Z,16.40
2023-03-08T03:13:48.817Z,19.20
2023-03-08T03:16:17.231Z,15.25
2023-03-08T03:18:44.300Z,16.60
2023-03-08T03:21:13.448Z,14.18
2023-03-08T03:23:41.184Z,15.43
2023-03-08T03:26:16.841Z,18.40
2023-03-08T03:28:45.672Z,20.25
2023-03-08T03:31:19.369Z,18.40
2023-03-08T03:33:47.308Z,16.95
2023-03-08T03:36:16.725Z,18.23
2023-03-08T03:38:44.730Z,14.85
2023-03-08T03:41:15.042Z,15.90
2023-03-08T03:43:42.727Z,15.60
2023-03-08T03:46:16.743Z,14.82
2023-03-08T03:48:45.873Z,16.83
2023-03-08T03:51:16.657Z,15.13
2023-03-08T03:53:47.701Z,13.65
2023-03-08T03:56:18.668Z,14.45
2023-03-08T03:58:46.464Z,13.80
2023-03-08T04:01:24.685Z,16.10
2023-03-08T04:03:55.267Z,13.20
2023-03-08T04:06:25.588Z,19.02
2023-03-08T04:09:05.138Z,17.55
2023-03-08T04:11:39.190Z,15.65
2023-03-08T04:14:09.761Z,14.60
2023-03-08T04:16:38.879Z,15.27
2023-03-08T04:19:13.101Z,13.75
2023-03-08T04:21:46.877Z,12.70
2023-03-08T04:24:15.714Z,14.25
2023-03-08T04:26:42.633Z,15.70
2023-03-08T04:29:12.667Z,17.38
2023-03-08T04:31:40.067Z,16.52
2023-03-08T04:34:11.376Z,14.52
2023-03-08T04:36:38.398Z,14.65
2023-03-08T04:39:05.507Z,14.27
2023-03-08T04:41:32.733Z,16.00
2023-03-08T04:44:11.707Z,15.88
2023-03-08T04:46:46.640Z,17.20
2023-03-08T04:49:19.260Z,15.82
2023-03-08T04:51:52.410Z,14.95
2023-03-08T04:54:19.744Z,16.23
2023-03-08T04:56:52.770Z,16.02
2023-03-08T04:59:23.716Z,18.13
2023-03-08T05:01:52.368Z,15.15
2023-03-08T05:04:20.476Z,14.57
2023-03-08T05:06:47.379Z,14.85
2023-03-08T05:09:19.707Z,14.10
2023-03-08T05:11:49.938Z,16.38
2023-03-08T05:14:16.741Z,14.75
2023-03-08T05:16:43.542Z,14.98
2023-03-08T05:19:11.483Z,16.75
2023-03-08T05:21:45.970Z,15.80
2023-03-08T05:24:13.874Z,15.32
2023-03-08T05:26:40.866Z,21.13
2023-03-08T05:29:09.650Z,18.17
2023-03-08T05:31:40.110Z,14.10
2023-03-08T05:34:11.438Z,13.55
2023-03-08T05:36:42.247Z,16.00
2023-03-08T05:39:10.908Z,15.23
2023-03-08T05:41:44.922Z,16.00
2023-03-08T05:44:15.199Z,14.57
2023-03-08T05:46:42.011Z,17.15
2023-03-08T05:49:11.212Z,14.05
2023-03-08T05:51:37.951Z,17.63
2023-03-08T05:54:05.573Z,17.98
2023-03-08T05:56:33.836Z,14.80
2023-03-08T05:59:19.842Z,21.85
2023-03-08T06:01:46.890Z,18.27
2023-03-08T06:04:24.373Z,19.83
2023-03-08T06:06:51.706Z,13.95
2023-03-08T06:09:21.952Z,18.45
2023-03-08T06:11:49.328Z,17.13
2023-03-08T06:14:16.073Z,19.95
2023-03-08T06:16:43.512Z,17.05
2023-03-08T06:19:10.922Z,16.73
2023-03-08T06:21:38.575Z,17.10
2023-03-08T06:24:05.466Z,17.75
2023-03-08T06:26:35.065Z,15.50
2023-03-08T06:29:02.342Z,15.63
2023-03-08T06:31:31.145Z,16.48
2023-03-08T06:33:58.013Z,17.52
2023-03-08T06:36:27.451Z,14.98
2023-03-08T06:38:54.704Z,15.27
2023-03-08T06:41:21.981Z,18.42
2023-03-08T06:43:53.243Z,14.80
2023-03-08T06:46:20.563Z,14.75
2023-03-08T06:48:49.031Z,17.02
2023-03-08T06:51:17.621Z,18.02
2023-03-08T06:53:46.337Z,16.98
2023-03-08T06:56:17.902Z,16.27
2023-03-08T06:58:45.468Z,17.65
2023-03-08T07:01:13.924Z,20.15
2023-03-08T07:03:41.307Z,14.90
2023-03-08T07:06:10.166Z,14.88
2023-03-08T07:08:39.241Z,15.77
2023-03-08T07:11:06.902Z,14.88
2023-03-08T07:13:33.748Z,16.90
2023-03-08T07:16:05.181Z,17.73
2023-03-08T07:18:31.958Z,23.60
2023-03-08T07:20:59.180Z,18.15
2023-03-08T07:23:25.974Z,17.90
2023-03-08T07:25:52.891Z,19.50
2023-03-08T07:28:21.683Z,17.70
2023-03-08T07:30:50.255Z,20.25
2023-03-08T07:33:18.961Z,15.98
2023-03-08T07:35:45.808Z,17.05
2023-03-08T07:38:13.288Z,16.98
2023-03-08T07:40:40.267Z,16.50
2023-03-08T07:43:07.513Z,14.70
2023-03-08T07:45:49.202Z,14.90
2023-03-08T07:48:16.232Z,14.52
2023-03-08T07:50:43.217Z,17.00
2023-03-08T07:53:11.024Z,13.80
2023-03-08T07:55:38.687Z,14.88
2023-03-08T07:58:05.583Z,15.63
2023-03-08T08:00:32.389Z,14.77
2023-03-08T08:02:59.132Z,14.13
2023-03-08T08:05:26.025Z,16.77
2023-03-08T08:07:53.469Z,14.88
2023-03-08T08:10:20.621Z,14.05
2023-03-08T08:12:47.465Z,15.50
2023-03-08T08:15:14.590Z,15.20
2023-03-08T08:17:41.382Z,15.23
2023-03-08T08:20:08.756Z,16.85
2023-03-08T08:22:36.786Z,28.20
2023-03-08T08:25:07.812Z,15.32
2023-03-08T08:27:35.615Z,14.65
2023-03-08T08:30:04.146Z,13.90
2023-03-08T08:32:31.134Z,16.75
2023-03-08T08:35:00.227Z,17.00
2023-03-08T08:37:27.177Z,14.75
2023-03-08T08:39:54.386Z,13.18
2023-03-08T08:42:21.199Z,14.02
2023-03-08T08:44:48.018Z,16.58
2023-03-08T08:47:14.748Z,12.82
2023-03-08T08:49:41.743Z,15.95
2023-03-08T08:52:08.630Z,11.38
2023-03-08T08:54:39.971Z,11.70
2023-03-08T08:57:07.367Z,20.67
2023-03-08T08:59:34.718Z,13.35
2023-03-08T09:02:02.072Z,12.55
2023-03-08T09:04:34.180Z,14.00
2023-03-08T09:07:03.398Z,13.27
2023-03-08T09:09:31.470Z,13.23
2023-03-08T09:11:58.296Z,10.82
2023-03-08T09:14:25.861Z,10.05
2023-03-08T09:16:53.282Z,8.90
2023-03-08T09:19:20.194Z,12.07
2023-03-08T09:21:47.028Z,10.35
2023-03-08T09:24:13.952Z,8.82
2023-03-08T09:26:40.857Z,11.13
2023-03-08T09:29:07.984Z,11.30
2023-03-08T09:31:38.082Z,15.20
2023-03-08T09:34:09.205Z,11.75
2023-03-08T09:36:39.616Z,10.48
2023-03-08T09:39:08.923Z,10.30
2023-03-08T09:41:52.659Z,10.25
2023-03-08T09:44:56.989Z,12.23
2023-03-08T09:47:41.642Z,12.73
2023-03-08T09:50:11.488Z,10.95
2023-03-08T09:53:00.266Z,10.60
2023-03-08T09:55:34.667Z,10.68
2023-03-08T09:58:25.087Z,12.65
2023-03-08T10:00:52.115Z,10.13
2023-03-08T10:03:40.146Z,13.85
2023-03-08T10:06:16.141Z,13.85
2023-03-08T10:08:49.915Z,12.93
2023-03-08T10:11:23.599Z,13.40
2023-03-08T10:13:56.850Z,12.80
2023-03-08T10:19:17.662Z,12.20
2023-03-08T10:21:45.363Z,12.65
2023-03-08T10:24:17.273Z,13.68
2023-03-08T10:26:44.931Z,18.67
2023-03-08T10:29:13.983Z,13.73
2023-03-08T10:31:44.021Z,16.33
2023-03-08T10:34:16.263Z,15.10
2023-03-08T10:37:06.472Z,15.20
2023-03-08T10:39:35.199Z,12.85
2023-03-08T10:42:08.022Z,11.40
2023-03-08T10:44:53.016Z,15.77
2023-03-08T10:47:30.249Z,15.00
2023-03-08T10:50:21.003Z,18.25
2023-03-08T10:52:50.821Z,10.65
2023-03-08T10:55:50.543Z,12.10
2023-03-08T10:58:40.629Z,14.30
2023-03-08T11:01:32.247Z,13.07
2023-03-08T11:04:20.280Z,12.45
2023-03-08T11:06:47.650Z,11.13
2023-03-08T11:09:29.942Z,12.30
2023-03-08T11:11:58.324Z,10.60
2023-03-08T11:14:27.024Z,13.98
2023-03-08T11:17:10.316Z,13.80
2023-03-08T11:19:49.371Z,13.75
2023-03-08T11:22:28.466Z,14.48
2023-03-08T11:25:13.140Z,15.73
2023-03-08T11:28:01.909Z,15.93
2023-03-08T11:30:43.588Z,13.30
2023-03-08T11:33:32.163Z,14.48
2023-03-08T11:36:17.234Z,13.20
2023-03-08T11:38:46.884Z,13.98
2023-03-08T11:41:14.772Z,12.32
2023-03-08T11:44:17.311Z,15.23
2023-03-08T11:47:12.116Z,15.25
2023-03-08T11:49:56.781Z,12.48
2023-03-08T11:52:40.446Z,15.18
2023-03-08T11:55:32.066Z,15.38
2023-03-08T11:58:09.502Z,14.07
2023-03-08T12:00:42.819Z,14.15
2023-03-08T12:03:26.735Z,16.63
2023-03-08T12:05:57.563Z,16.23
2023-03-08T12:08:39.790Z,13.07
2023-03-08T12:11:17.116Z,15.82
2023-03-08T12:13:52.177Z,16.27
2023-03-08T12:16:25.184Z,14.38
2023-03-08T12:19:13.871Z,18.98
2023-03-08T12:22:06.875Z,12.75
2023-03-08T12:24:45.759Z,17.67
2023-03-08T12:27:17.080Z,14.40
2023-03-08T12:29:55.473Z,17.13
2023-03-08T12:32:24.660Z,14.73
2023-03-08T12:35:21.520Z,12.40
2023-03-08T12:38:19.261Z,15.13
2023-03-08T12:40:55.219Z,15.25
2023-03-08T12:43:22.121Z,13.25
2023-03-08T12:46:00.987Z,13.23
2023-03-08T12:48:35.827Z,13.75
2023-03-08T12:51:15.723Z,12.38
2023-03-08T12:53:51.195Z,14.30
2023-03-08T12:56:38.202Z,17.63
2023-03-08T12:59:30.070Z,16.65
2023-03-08T13:02:03.942Z,15.45
2023-03-08T13:04:42.631Z,15.82
2023-03-08T13:07:27.195Z,12.82
2023-03-08T13:10:18.787Z,14.30
2023-03-08T13:13:02.271Z,14.80
2023-03-08T13:18:20.047Z,19.38
2023-03-08T13:20:55.599Z,16.65
2023-03-08T13:23:36.367Z,13.70
2023-03-08T13:26:03.200Z,13.88
2023-03-08T13:28:47.710Z,14.63
2023-03-08T13:31:22.530Z,15.15
2023-03-08T13:33:54.641Z,13.65
2023-03-08T13:36:25.571Z,13.73
2023-03-08T13:39:15.876Z,13.60
2023-03-08T13:41:47.802Z,13.85
2023-03-08T13:44:18.675Z,13.25
2023-03-08T13:46:48.586Z,11.82
2023-03-08T13:49:18.994Z,16.27
2023-03-08T13:51:48.842Z,15.15
2023-03-08T13:54:20.497Z,21.60
2023-03-08T13:56:54.338Z,14.90
2023-03-08T13:59:21.973Z,14.00
2023-03-08T14:01:50.862Z,13.55
2023-03-08T14:04:24.144Z,14.73
2023-03-08T14:09:19.584Z,16.63
2023-03-08T14:11:56.167Z,16.65
2023-03-08T14:14:32.700Z,16.73
2023-03-08T14:17:00.535Z,14.80
2023-03-08T14:19:29.215Z,16.42
2023-03-08T14:21:58.885Z,12.55
2023-03-08T14:24:34.009Z,17.90
2023-03-08T14:27:14.443Z,14.50
2023-03-08T14:29:42.487Z,19.48
2023-03-08T14:32:12.506Z,16.13
2023-03-08T14:34:45.122Z,15.85
2023-03-08T14:39:42.956Z,15.07
2023-03-08T14:42:17.384Z,15.40
2023-03-08T14:44:49.905Z,14.32
2023-03-08T14:47:25.027Z,15.23
2023-03-08T14:50:02.742Z,12.85
2023-03-08T14:52:32.914Z,12.70
2023-03-08T14:55:00.945Z,18.23
2023-03-08T14:57:30.516Z,15.07
2023-03-08T15:00:14.549Z,17.60
2023-03-08T15:02:42.476Z,16.67
2023-03-08T15:05:28.754Z,15.35
2023-03-08T15:07:57.764Z,18.40
2023-03-08T15:10:33.765Z,13.65
2023-03-08T15:13:01.147Z,14.52
2023-03-08T15:15:28.045Z,21.98
2023-03-08T15:17:56.249Z,18.50
2023-03-08T15:20:23.403Z,16.50
2023-03-08T15:22:53.847Z,16.80
2023-03-08T15:25:44.363Z,13.25
2023-03-08T15:28:16.266Z,19.70
2023-03-08T15:30:44.302Z,15.25
2023-03-08T15:33:12.152Z,13.35
2023-03-08T15:35:39.855Z,14.60
2023-03-08T15:38:07.572Z,18.10
2023-03-08T15:40:35.328Z,13.65
2023-03-08T15:43:02.371Z,15.95
2023-03-08T15:45:49.094Z,14.02
2023-03-08T15:48:19.419Z,11.70
2023-03-08T15:50:46.485Z,14.45
2023-03-08T15:53:20.690Z,16.88
2023-03-08T15:55:54.151Z,17.10
2023-03-08T15:58:20.848Z,15.63
2023-03-08T16:00:47.851Z,14.60
2023-03-08T16:03:15.131Z,18.80
2023-03-08T16:05:41.944Z,15.85
2023-03-08T16:08:08.690Z,15.15
2023-03-08T16:10:40.630Z,20.02
2023-03-08T16:13:08.537Z,20.42
2023-03-08T16:15:35.339Z,17.23
2023-03-08T16:18:02.084Z,19.45
2023-03-08T16:20:28.828Z,16.73
2023-03-08T16:22:55.757Z,17.80
2023-03-08T16:25:23.223Z,13.75
2023-03-08T16:27:50.081Z,16.08
2023-03-08T16:30:17.008Z,15.55
2023-03-08T16:32:44.841Z,14.05
2023-03-08T16:35:13.890Z,15.93
2023-03-08T16:37:41.163Z,18.92
2023-03-08T16:40:08.651Z,20.20
2023-03-08T16:42:35.635Z,15.60
2023-03-08T16:45:02.676Z,17.48
2023-03-08T16:47:32.449Z,17.80
2023-03-08T16:50:01.140Z,15.15
2023-03-08T16:52:28.343Z,16.15
2023-03-08T16:54:56.135Z,22.63
2023-03-08T16:57:23.121Z,17.27
2023-03-08T16:59:49.935Z,17.48
2023-03-08T17:02:20.228Z,20.80
2023-03-08T17:04:48.238Z,16.00
2023-03-08T17:07:17.406Z,16.25
2023-03-08T17:09:45.494Z,15.95
2023-03-08T17:12:12.268Z,15.65
2023-03-08T17:14:41.254Z,12.90
2023-03-08T17:17:08.615Z,16.52
2023-03-08T17:19:35.413Z,16.42
2023-03-08T17:22:02.190Z,15.30
2023-03-08T17:24:31.164Z,16.42
2023-03-08T17:26:58.299Z,19.75
2023-03-08T17:29:25.581Z,16.85
2023-03-08T17:31:54.774Z,14.80
2023-03-08T17:34:23.095Z,15.88
2023-03-08T17:36:51.409Z,19.27
2023-03-08T17:39:20.802Z,15.18
2023-03-08T17:41:47.542Z,17.75
2023-03-08T17:44:14.939Z,17.25
2023-03-08T17:46:42.174Z,16.05
2023-03-08T17:49:09.414Z,15.50
2023-03-08T17:51:36.779Z,19.25
2023-03-08T17:54:04.322Z,17.52
2023-03-08T17:56:32.220Z,16.67
2023-03-08T17:59:01.148Z,17.58
2023-03-08T18:01:30.692Z,19.05
2023-03-08T18:03:58.116Z,15.13
2023-03-08T18:06:29.245Z,14.38
2023-03-08T18:08:57.524Z,15.43
2023-03-08T18:11:24.812Z,17.65
2023-03-08T18:13:51.790Z,16.35
2023-03-08T18:16:20.690Z,14.52
2023-03-08T18:18:49.692Z,17.88
2023-03-08T18:21:17.633Z,14.30
2023-03-08T18:23:45.033Z,17.20
2023-03-08T18:26:13.405Z,12.30
2023-03-08T18:28:40.616Z,18.08
2023-03-08T18:31:09.318Z,18.88
2023-03-08T18:33:36.338Z,14.75
2023-03-08T18:36:03.854Z,16.52
2023-03-08T18:38:30.803Z,18.58
2023-03-08T18:40:57.800Z,19.92
2023-03-08T18:43:25.461Z,14.30
2023-03-08T18:45:54.285Z,14.85
2023-03-08T18:48:22.238Z,17.33
2023-03-08T18:50:49.794Z,16.25
2023-03-08T18:53:16.824Z,16.88
2023-03-08T18:55:55.502Z,12.95
2023-03-08T18:58:23.039Z,16.63
2023-03-08T19:00:50.195Z,17.48
2023-03-08T19:03:17.120Z,18.02
2023-03-08T19:05:43.991Z,32.15
2023-03-08T19:08:11.102Z,17.38
2023-03-08T19:10:37.966Z,16.75
2023-03-08T19:13:04.746Z,15.75
2023-03-08T19:15:35.900Z,16.17
2023-03-08T19:18:02.769Z,17.05
2023-03-08T19:20:30.172Z,17.98
2023-03-08T19:22:57.002Z,15.52
2023-03-08T19:25:24.848Z,17.92
2023-03-08T19:27:51.717Z,17.83
2023-03-08T19:30:18.631Z,17.30
2023-03-08T19:32:48.006Z,14.88
2023-03-08T19:35:14.932Z,15.40
2023-03-08T19:37:42.795Z,17.52
2023-03-08T19:40:10.291Z,16.27
2023-03-08T19:42:37.145Z,13.88
2023-03-08T19:45:04.375Z,15.90
2023-03-08T19:47:32.041Z,16.17
2023-03-08T19:49:58.760Z,17.45
2023-03-08T19:52:25.537Z,13.80
2023-03-08T19:54:52.329Z,14.07
2023-03-08T19:57:19.082Z,17.05
2023-03-08T19:59:48.236Z,13.38
2023-03-08T20:02:15.024Z,11.13
2023-03-08T20:04:44.028Z,11.07
2023-03-08T20:07:10.828Z,13.15
2023-03-08T20:09:37.752Z,14.00
2023-03-08T20:12:05.096Z,9.25
2023-03-08T20:14:31.894Z,12.15
2023-03-08T20:16:59.822Z,8.88
2023-03-08T20:19:28.118Z,8.55
2023-03-08T20:21:55.179Z,8.45
2023-03-08T20:24:24.158Z,8.25
2023-03-08T20:26:51.533Z,8.95
2023-03-08T20:29:19.079Z,7.07
2023-03-08T20:31:48.292Z,9.07
2023-03-08T20:34:15.704Z,9.07
2023-03-08T20:36:42.640Z,13.82
2023-03-08T20:39:10.245Z,12.38
2023-03-08T20:41:37.805Z,8.32
2023-03-08T20:44:04.814Z,5.68
2023-03-08T20:46:34.035Z,8.75
2023-03-08T20:49:01.655Z,7.13
2023-03-08T20:51:29.303Z,6.78
2023-03-08T20:53:57.122Z,5.80
2023-03-08T20:56:26.068Z,5.10
2023-03-08T20:58:54.835Z,8.43
2023-03-08T21:01:32.769Z,7.20
2023-03-08T21:03:59.693Z,16.20
2023-03-08T21:06:31.517Z,5.80
2023-03-08T21:08:59.366Z,4.90
2023-03-08T21:11:26.258Z,4.80
2023-03-08T21:13:55.442Z,5.63
2023-03-08T21:16:23.729Z,4.60
2023-03-08T21:18:58.664Z,3.95
2023-03-08T21:21:35.520Z,5.90
2023-03-08T21:24:05.616Z,6.13
2023-03-08T21:26:33.410Z,8.15
2023-03-08T21:29:02.257Z,7.32
2023-03-08T21:31:33.685Z,5.57
2023-03-08T21:34:03.711Z,4.40
2023-03-08T21:36:31.109Z,6.18
2023-03-08T21:38:59.031Z,5.15
2023-03-08T21:41:31.993Z,6.45
2023-03-08T21:43:59.625Z,5.80
2023-03-08T21:46:26.608Z,4.82
2023-03-08T21:48:54.632Z,4.95
2023-03-08T21:51:21.584Z,3.72
2023-03-08T21:53:48.349Z,4.45
2023-03-08T21:56:16.633Z,5.28
2023-03-08T21:58:44.567Z,3.88
2023-03-08T22:01:29.282Z,5.00
2023-03-08T22:03:57.033Z,8.68
2023-03-08T22:06:25.274Z,4.53
2023-03-08T22:08:52.635Z,8.63
2023-03-08T22:11:20.624Z,5.13
2023-03-08T22:13:51.994Z,4.97
2023-03-08T22:16:19.973Z,4.28
2023-03-08T22:18:46.872Z,6.00
2023-03-08T22:21:14.846Z,3.88
2023-03-08T22:23:41.653Z,14.25
2023-03-08T22:26:09.895Z,3.83
2023-03-08T22:28:37.472Z,4.18
2023-03-08T22:31:12.365Z,7.03
2023-03-08T22:33:39.777Z,3.78
2023-03-08T22:36:08.973Z,4.53
2023-03-08T22:38:36.201Z,5.53
2023-03-08T22:41:08.341Z,4.47
2023-03-08T22:43:36.412Z,4.80
2023-03-08T22:46:11.081Z,5.72
2023-03-08T22:48:38.056Z,4.72
2023-03-08T22:51:11.290Z,6.80
2023-03-08T22:53:38.824Z,4.45
2023-03-08T22:56:06.113Z,5.72
2023-03-08T22:58:33.071Z,5.78
2023-03-08T23:00:59.869Z,9.93
2023-03-08T23:03:26.742Z,4.43
2023-03-08T23:05:54.002Z,3.97
2023-03-08T23:08:22.648Z,4.05
2023-03-08T23:10:50.682Z,4.15
2023-03-08T23:13:32.739Z,4.03
2023-03-08T23:16:00.282Z,9.13
2023-03-08T23:18:27.096Z,4.00
2023-03-08T23:20:54.269Z,5.82
2023-03-08T23:23:25.140Z,5.90
2023-03-08T23:25:52.401Z,6.93
2023-03-08T23:28:19.587Z,5.97
2023-03-08T23:30:46.420Z,6.00
2023-03-08T23:33:13.344Z,3.70
2023-03-08T23:35:41.277Z,4.68
2023-03-08T23:38:08.593Z,5.57
2023-03-08T23:40:39.932Z,3.63
2023-03-08T23:43:08.455Z,5.57
2023-03-08T23:45:35.346Z,5.10
2023-03-08T23:48:03.546Z,3.85
2023-03-08T23:50:30.554Z,6.82
2023-03-08T23:52:59.868Z,4.22
2023-03-08T23:55:26.628Z,6.55
2023-03-08T23:57:53.357Z,5.53
